KHSP/HSP METAR and TAF weather

Enter ICAO airport designator
Station Type Date Time Source
KHSP METAR 2018/12/10 12:40 UTC NOAA

KHSP 101240Z AUTO 00000KT 10SM CLR M01/M06 A3001 RMK AO2 T10101058


Station Type Date Time Source
KHSP Decoded METAR 2018/12/10 12:40 UTC NOAA

Hot Springs / Ingalls, VA, United States (KHSP) 37-57N 079-50W
Dec 10, 2018 - 07:40 AM EST / 2018.12.10 1240 UTC
Wind: Calm:0
Visibility: 10 mile(s):0
Sky conditions: clear
Temperature: 30.2 F (-1.0 C)
Dew Point: 21.6 F (-5.8 C)
Relative Humidity: 69%
Pressure (altimeter): 30.01 in. Hg (1016 hPa)
ob: KHSP 101240Z AUTO 00000KT 10SM CLR M01/M06 A3001 RMK AO2 T10101058
cycle: 12

Station Type Date Time Source
KHSP TAF UTC NOAA

Error!


Example: see airport list